TAF Text Data
IDs:
Format:
Raw Decoded Include METAR

Data at: 0143 UTC 01 Mar 2021

TAF for:KSBD (San Bernardino Intl, CA, US) issued at 2333 UTC 28 Feb 2021
Text:KSBD 282333Z 0100/0124 01012KT P6SM SKC
Forecast period:0000 to 0100 UTC 01 March 2021
Forecast type:FROM: standard forecast or significant change
Winds:from the N (10 degrees) at 14 MPH (12 knots; 6.2 m/s)
Visibility:6 or more sm (10+ km)
Ceiling:at least 12,000 feet AGL
Clouds:clear skies
Text:FM010100 VRB04KT P6SM SKC
Forecast period:0100 UTC 01 March 2021 to 0000 UTC 02 March 2021
Forecast type:FROM: standard forecast or significant change
Winds:variable direction winds at 5 MPH (4 knots; 2.1 m/s)
Visibility:6 or more sm (10+ km)
Ceiling:at least 12,000 feet AGL
Clouds:clear skies